createdAt,value
2023-09-12T00:02:17.872Z,11.52
2023-09-12T00:04:45.049Z,11.00
2023-09-12T00:07:12.270Z,11.35
2023-09-12T00:09:39.408Z,12.18
2023-09-12T00:12:08.423Z,12.48
2023-09-12T00:14:35.996Z,11.93
2023-09-12T00:17:03.335Z,12.60
2023-09-12T00:19:30.470Z,12.40
2023-09-12T00:21:57.647Z,12.57
2023-09-12T00:24:24.869Z,12.95
2023-09-12T00:26:52.071Z,12.77
2023-09-12T00:29:20.652Z,13.25
2023-09-12T00:31:47.812Z,13.27
2023-09-12T00:34:17.674Z,12.95
2023-09-12T00:36:44.821Z,12.75
2023-09-12T00:39:12.034Z,12.70
2023-09-12T00:41:39.218Z,13.05
2023-09-12T00:44:07.215Z,13.13
2023-09-12T00:46:36.358Z,12.80
2023-09-12T00:49:04.685Z,12.48
2023-09-12T00:51:32.808Z,13.80
2023-09-12T00:54:00.157Z,14.48
2023-09-12T00:56:27.794Z,13.82
2023-09-12T00:58:55.145Z,12.95
2023-09-12T01:01:22.477Z,14.70
2023-09-12T01:03:51.248Z,13.00
2023-09-12T01:06:20.866Z,13.68
2023-09-12T01:08:48.179Z,14.23
2023-09-12T01:11:15.774Z,14.25
2023-09-12T01:13:43.173Z,12.80
2023-09-12T01:16:10.426Z,13.48
2023-09-12T01:18:38.063Z,13.13
2023-09-12T01:22:02.245Z,13.45
2023-09-12T01:27:40.288Z,14.27
2023-09-12T01:30:09.726Z,15.53
2023-09-12T01:32:37.303Z,13.50
2023-09-12T01:35:05.216Z,15.02
2023-09-12T01:37:32.622Z,13.25
2023-09-12T01:39:59.876Z,14.10
2023-09-12T01:42:32.489Z,13.98
2023-09-12T01:45:03.132Z,14.23
2023-09-12T01:47:30.537Z,13.63
2023-09-12T01:49:59.047Z,14.25
2023-09-12T01:52:26.996Z,15.52
2023-09-12T01:54:54.543Z,14.38
2023-09-12T01:57:22.050Z,15.65
2023-09-12T01:59:49.924Z,15.73
2023-09-12T02:02:19.197Z,16.63
2023-09-12T02:04:53.799Z,17.75
2023-09-12T02:07:21.191Z,16.70
2023-09-12T02:09:48.343Z,17.13
2023-09-12T02:12:15.506Z,17.33
2023-09-12T02:14:42.710Z,18.85
2023-09-12T02:17:10.004Z,18.83
2023-09-12T02:19:38.578Z,18.48
2023-09-12T02:22:05.741Z,17.58
2023-09-12T02:24:35.771Z,16.75
2023-09-12T02:27:03.122Z,16.23
2023-09-12T02:29:30.370Z,16.58
2023-09-12T02:31:57.515Z,15.68
2023-09-12T02:34:24.651Z,14.65
2023-09-12T02:36:53.256Z,14.43
2023-09-12T02:39:20.453Z,12.60
2023-09-12T02:41:47.609Z,12.98
2023-09-12T02:44:14.732Z,13.52
2023-09-12T02:46:41.914Z,12.63
2023-09-12T02:49:09.056Z,13.65
2023-09-12T02:51:39.976Z,13.32
2023-09-12T02:54:08.660Z,12.98
2023-09-12T02:56:35.828Z,13.10
2023-09-12T02:59:02.960Z,13.27
2023-09-12T03:01:30.247Z,12.10
2023-09-12T03:03:58.843Z,12.27
2023-09-12T03:06:26.097Z,13.05
2023-09-12T03:08:53.705Z,13.20
2023-09-12T03:11:22.193Z,14.70
2023-09-12T03:13:49.364Z,12.60
2023-09-12T03:16:16.736Z,13.50
2023-09-12T03:18:44.073Z,12.23
2023-09-12T03:21:11.511Z,12.52
2023-09-12T03:23:38.680Z,12.50
2023-09-12T03:26:06.855Z,11.93
2023-09-12T03:28:35.412Z,11.95
2023-09-12T03:31:09.558Z,14.05
2023-09-12T03:33:36.891Z,13.77
2023-09-12T03:36:04.938Z,12.18
2023-09-12T03:38:32.116Z,13.35
2023-09-12T03:40:59.239Z,12.68
2023-09-12T03:43:26.411Z,13.18
2023-09-12T03:45:58.593Z,12.95
2023-09-12T03:48:25.859Z,12.15
2023-09-12T03:50:53.090Z,11.93
2023-09-12T03:53:20.242Z,11.77
2023-09-12T03:55:47.409Z,10.40
2023-09-12T03:58:14.579Z,10.77
2023-09-12T04:00:41.815Z,11.60
2023-09-12T04:03:10.447Z,11.50
2023-09-12T04:05:37.728Z,10.80
2023-09-12T04:08:05.678Z,9.50
2023-09-12T04:10:32.841Z,11.10
2023-09-12T04:13:00.036Z,10.98
2023-09-12T04:15:30.341Z,11.00
2023-09-12T04:17:57.753Z,11.80
2023-09-12T04:20:26.302Z,11.10
2023-09-12T04:22:53.420Z,11.43
2023-09-12T04:25:20.540Z,10.98
2023-09-12T04:27:47.870Z,11.07
2023-09-12T04:30:15.202Z,10.75
2023-09-12T04:32:42.507Z,11.10
2023-09-12T04:35:10.187Z,12.27
2023-09-12T04:37:38.794Z,13.35
2023-09-12T04:40:08.577Z,14.25
2023-09-12T04:42:35.763Z,14.80
2023-09-12T04:45:03.249Z,15.05
2023-09-12T04:47:30.521Z,13.45
2023-09-12T04:49:58.090Z,13.90
2023-09-12T04:52:25.401Z,13.95
2023-09-12T04:54:53.929Z,13.18
2023-09-12T04:57:21.082Z,13.52
2023-09-12T04:59:48.252Z,13.65
2023-09-12T05:02:15.420Z,15.63
2023-09-12T05:04:42.648Z,14.07
2023-09-12T05:07:09.847Z,15.45
2023-09-12T05:09:37.001Z,17.13
2023-09-12T05:12:06.647Z,17.85
2023-09-12T05:14:33.826Z,17.80
2023-09-12T05:17:00.985Z,17.42
2023-09-12T05:19:28.141Z,17.70
2023-09-12T05:21:55.293Z,18.52
2023-09-12T05:24:22.542Z,18.20
2023-09-12T05:26:49.740Z,19.30
2023-09-12T05:29:18.319Z,18.42
2023-09-12T05:31:45.581Z,18.48
2023-09-12T05:34:12.871Z,18.13
2023-09-12T05:36:40.096Z,18.10
2023-09-12T05:39:07.347Z,18.77
2023-09-12T05:41:35.034Z,19.27
2023-09-12T05:44:02.244Z,19.40
2023-09-12T05:46:30.871Z,18.83
2023-09-12T05:48:58.059Z,17.35
2023-09-12T05:51:25.282Z,16.52
2023-09-12T05:53:52.707Z,17.00
2023-09-12T05:56:19.969Z,15.82
2023-09-12T05:58:47.180Z,15.77
2023-09-12T06:01:14.355Z,16.20
2023-09-12T06:03:42.982Z,15.40
2023-09-12T06:06:10.318Z,15.15
2023-09-12T06:08:37.570Z,16.10
2023-09-12T06:11:05.322Z,14.90
2023-09-12T06:13:32.522Z,14.77
2023-09-12T06:16:00.485Z,14.48
2023-09-12T06:18:27.744Z,14.93
2023-09-12T06:20:56.342Z,13.27
2023-09-12T06:23:23.562Z,13.25
2023-09-12T06:25:50.918Z,12.93
2023-09-12T06:28:27.283Z,12.68
2023-09-12T06:30:54.649Z,12.07
2023-09-12T06:33:21.885Z,11.55
2023-09-12T06:35:50.080Z,10.95
2023-09-12T06:38:18.637Z,11.13
2023-09-12T06:40:45.880Z,10.32
2023-09-12T06:43:13.061Z,9.85
2023-09-12T06:45:41.556Z,10.48
2023-09-12T06:48:08.934Z,9.55
2023-09-12T06:50:36.741Z,10.80
2023-09-12T06:53:04.791Z,11.00
2023-09-12T06:55:33.397Z,10.70
2023-09-12T06:58:00.594Z,10.98
2023-09-12T07:00:27.835Z,10.70
2023-09-12T07:02:55.119Z,10.75
2023-09-12T07:05:22.406Z,9.68
2023-09-12T07:07:49.958Z,9.80
2023-09-12T07:10:24.660Z,11.40
2023-09-12T07:12:54.496Z,12.30
2023-09-12T07:15:21.845Z,12.93
2023-09-12T07:17:49.212Z,12.77
2023-09-12T07:20:16.639Z,12.55
2023-09-12T07:22:43.836Z,12.50
2023-09-12T07:25:11.511Z,13.93
2023-09-12T07:27:38.860Z,11.65
2023-09-12T07:30:09.490Z,12.65
2023-09-12T07:32:36.682Z,14.10
2023-09-12T07:35:04.869Z,10.98
2023-09-12T07:37:32.043Z,10.55
2023-09-12T07:39:59.185Z,10.15
2023-09-12T07:42:26.520Z,10.52
2023-09-12T07:44:53.720Z,9.05
2023-09-12T07:47:22.340Z,9.10
2023-09-12T07:49:54.480Z,9.35
2023-09-12T07:52:21.780Z,10.03
2023-09-12T07:54:50.254Z,11.40
2023-09-12T07:57:17.505Z,13.32
2023-09-12T07:59:44.659Z,14.07
2023-09-12T08:02:11.805Z,13.55
2023-09-12T08:04:40.415Z,14.90
2023-09-12T08:07:07.839Z,16.17
2023-09-12T08:09:50.405Z,16.92
2023-09-12T08:12:17.831Z,16.85
2023-09-12T08:14:44.986Z,16.98
2023-09-12T08:17:12.263Z,17.63
2023-09-12T08:19:41.053Z,17.13
2023-09-12T08:22:09.432Z,15.93
2023-09-12T08:24:36.779Z,16.90
2023-09-12T08:27:04.697Z,15.60
2023-09-12T08:29:32.795Z,15.80
2023-09-12T08:32:00.189Z,15.30
2023-09-12T08:34:27.549Z,15.02
2023-09-12T08:36:56.099Z,14.77
2023-09-12T08:39:25.879Z,13.65
2023-09-12T08:41:53.414Z,12.60
2023-09-12T08:44:22.025Z,13.73
2023-09-12T08:46:49.382Z,12.88
2023-09-12T08:49:17.227Z,12.70
2023-09-12T08:51:44.573Z,10.75
2023-09-12T08:54:13.320Z,9.35
2023-09-12T08:56:42.186Z,9.02
2023-09-12T08:59:09.868Z,8.93
2023-09-12T09:01:37.483Z,9.02
2023-09-12T09:04:05.322Z,8.38
2023-09-12T09:06:33.362Z,8.13
2023-09-12T09:09:01.552Z,7.93
2023-09-12T09:11:30.219Z,8.40
2023-09-12T09:13:57.614Z,7.78
2023-09-12T09:16:24.987Z,8.38
2023-09-12T09:18:53.898Z,7.20
2023-09-12T09:21:23.385Z,8.40
2023-09-12T09:23:50.554Z,7.30
2023-09-12T09:26:18.077Z,7.72
2023-09-12T09:28:46.715Z,7.75
2023-09-12T09:31:14.771Z,6.68
2023-09-12T09:33:42.301Z,8.13
2023-09-12T09:36:09.785Z,6.93
2023-09-12T09:38:37.020Z,7.35
2023-09-12T09:41:07.206Z,6.88
2023-09-12T09:43:34.568Z,6.47
2023-09-12T09:46:03.915Z,6.32
2023-09-12T09:48:31.172Z,6.65
2023-09-12T09:51:02.118Z,6.22
2023-09-12T09:53:30.027Z,6.25
2023-09-12T09:56:10.947Z,6.38
2023-09-12T09:58:38.417Z,6.30
2023-09-12T10:01:07.720Z,5.72
2023-09-12T10:03:37.842Z,6.20
2023-09-12T10:06:05.875Z,5.80
2023-09-12T10:08:33.916Z,6.00
2023-09-12T10:11:01.139Z,5.78
2023-09-12T10:13:29.175Z,6.05
2023-09-12T10:15:56.989Z,5.50
2023-09-12T10:18:30.228Z,4.90
2023-09-12T10:21:11.935Z,3.72
2023-09-12T10:23:45.046Z,3.72
2023-09-12T10:26:14.333Z,2.70
2023-09-12T10:28:43.374Z,2.80
2023-09-12T10:31:13.889Z,2.80
2023-09-12T10:33:43.942Z,3.15
2023-09-12T10:36:12.580Z,2.53
2023-09-12T10:38:43.849Z,2.83
2023-09-12T10:41:13.375Z,2.30
2023-09-12T10:43:42.305Z,2.30
2023-09-12T10:46:09.766Z,2.20
2023-09-12T10:48:37.720Z,2.67
2023-09-12T10:51:06.640Z,2.30
2023-09-12T10:53:34.056Z,2.03
2023-09-12T10:56:03.012Z,2.97
2023-09-12T10:58:30.259Z,2.30
2023-09-12T11:01:24.409Z,2.50
2023-09-12T11:03:51.768Z,2.67
2023-09-12T11:06:29.155Z,2.80
2023-09-12T11:09:18.721Z,2.45
2023-09-12T11:11:47.613Z,2.22
2023-09-12T11:14:15.313Z,2.53
2023-09-12T11:17:12.159Z,2.33
2023-09-12T11:19:45.591Z,3.00
2023-09-12T11:22:25.580Z,2.53
2023-09-12T11:24:53.333Z,3.00
2023-09-12T11:27:20.995Z,2.70
2023-09-12T11:29:48.491Z,2.58
2023-09-12T11:32:29.211Z,2.88
2023-09-12T11:34:56.496Z,3.13
2023-09-12T11:37:26.767Z,2.83
2023-09-12T11:39:55.148Z,2.95
2023-09-12T11:42:22.413Z,3.40
2023-09-12T11:44:50.794Z,3.13
2023-09-12T11:47:18.060Z,3.10
2023-09-12T11:49:45.378Z,2.80
2023-09-12T11:52:14.300Z,3.10
2023-09-12T11:54:43.195Z,2.90
2023-09-12T11:57:11.832Z,3.20
2023-09-12T11:59:39.719Z,2.72
2023-09-12T12:02:08.490Z,3.15
2023-09-12T12:04:36.531Z,3.22
2023-09-12T12:07:05.060Z,3.33
2023-09-12T12:09:32.812Z,3.15
2023-09-12T12:12:10.994Z,2.92
2023-09-12T12:14:39.597Z,3.05
2023-09-12T12:17:08.476Z,3.47
2023-09-12T12:19:35.873Z,3.33
2023-09-12T12:22:03.488Z,2.97
2023-09-12T12:24:38.835Z,2.70
2023-09-12T12:27:07.722Z,2.60
2023-09-12T12:29:35.826Z,2.47
2023-09-12T12:32:03.595Z,2.80
2023-09-12T12:35:09.529Z,3.20
2023-09-12T12:37:18.115Z,2.70
2023-09-12T12:39:45.503Z,2.75
2023-09-12T12:42:14.041Z,2.97
2023-09-12T12:44:41.208Z,2.75
2023-09-12T12:47:10.354Z,3.10
2023-09-12T12:49:38.621Z,3.08
2023-09-12T12:52:06.562Z,2.70
2023-09-12T12:54:34.044Z,2.80
2023-09-12T12:57:01.921Z,2.70
2023-09-12T12:59:30.486Z,2.42
2023-09-12T13:01:57.681Z,3.15
2023-09-12T13:04:26.270Z,3.03
2023-09-12T13:06:53.514Z,2.67
2023-09-12T13:09:20.721Z,2.78
2023-09-12T13:11:47.930Z,3.00
2023-09-12T13:14:15.090Z,2.70
2023-09-12T13:16:43.702Z,2.90
2023-09-12T13:19:11.318Z,2.78
2023-09-12T13:21:38.478Z,2.65
2023-09-12T13:24:06.250Z,2.97
2023-09-12T13:26:33.447Z,3.78
2023-09-12T13:29:00.597Z,2.13
2023-09-12T13:31:27.757Z,2.50
2023-09-12T13:33:56.482Z,2.67
2023-09-12T13:36:23.821Z,2.40
2023-09-12T13:38:51.097Z,2.95
2023-09-12T13:41:18.242Z,2.72
2023-09-12T13:43:45.704Z,3.13
2023-09-12T13:46:13.158Z,3.03
2023-09-12T13:48:40.414Z,2.88
2023-09-12T13:51:09.111Z,2.75
2023-09-12T13:53:36.351Z,2.67
2023-09-12T13:56:11.865Z,2.75
2023-09-12T13:58:50.919Z,2.92
2023-09-12T14:01:29.182Z,2.53
2023-09-12T14:04:00.873Z,2.58
2023-09-12T14:06:29.847Z,2.65
2023-09-12T14:08:57.649Z,2.60
2023-09-12T14:11:32.822Z,2.60
2023-09-12T14:14:12.284Z,3.28
2023-09-12T14:16:43.160Z,2.63
2023-09-12T14:19:13.269Z,3.00
2023-09-12T14:21:42.050Z,2.38
2023-09-12T14:24:10.550Z,3.35
2023-09-12T14:26:38.840Z,3.78
2023-09-12T14:29:06.480Z,2.97
2023-09-12T14:31:33.840Z,3.47
2023-09-12T14:34:01.055Z,3.28
2023-09-12T14:36:28.269Z,2.72
2023-09-12T14:38:56.817Z,3.42
2023-09-12T14:41:24.006Z,3.55
2023-09-12T14:43:51.168Z,3.38
2023-09-12T14:46:18.359Z,3.28
2023-09-12T14:48:53.204Z,3.28
2023-09-12T14:51:31.864Z,3.67
2023-09-12T14:54:02.470Z,3.85
2023-09-12T14:56:29.639Z,3.92
2023-09-12T14:58:56.824Z,3.05
2023-09-12T15:01:24.052Z,3.08
2023-09-12T15:03:51.396Z,2.78
2023-09-12T15:06:19.934Z,3.47
2023-09-12T15:08:49.923Z,3.10
2023-09-12T15:11:18.498Z,3.50
2023-09-12T15:13:46.066Z,3.08
2023-09-12T15:16:13.848Z,3.17
2023-09-12T15:18:41.041Z,3.00
2023-09-12T15:21:08.346Z,2.85
2023-09-12T15:23:35.521Z,3.53
2023-09-12T15:26:02.692Z,2.90
2023-09-12T15:28:31.253Z,3.60
2023-09-12T15:30:58.440Z,3.05
2023-09-12T15:33:25.853Z,3.20
2023-09-12T15:35:53.063Z,3.10
2023-09-12T15:38:20.198Z,2.90
2023-09-12T15:40:47.350Z,3.28
2023-09-12T15:43:24.033Z,3.15
2023-09-12T15:45:53.562Z,3.47
2023-09-12T15:48:20.867Z,2.63
2023-09-12T15:50:48.123Z,2.90
2023-09-12T15:53:15.800Z,3.85
2023-09-12T15:55:42.950Z,3.30
2023-09-12T15:58:10.294Z,2.78
2023-09-12T16:00:37.917Z,2.78
2023-09-12T16:03:06.826Z,3.20
2023-09-12T16:05:34.110Z,3.47
2023-09-12T16:08:01.312Z,3.97
2023-09-12T16:10:28.414Z,3.50
2023-09-12T16:12:56.794Z,3.75
2023-09-12T16:15:24.191Z,3.25
2023-09-12T16:17:51.598Z,2.80
2023-09-12T16:20:20.413Z,3.58
2023-09-12T16:22:47.546Z,3.30
2023-09-12T16:25:14.958Z,4.60
2023-09-12T16:27:42.286Z,3.75
2023-09-12T16:30:10.199Z,3.42
2023-09-12T16:32:39.475Z,3.38
2023-09-12T16:35:07.568Z,3.97
2023-09-12T16:37:36.425Z,3.78
2023-09-12T16:40:04.585Z,3.47
2023-09-12T16:42:32.049Z,3.85
2023-09-12T16:44:59.609Z,3.63
2023-09-12T16:47:26.817Z,3.80
2023-09-12T16:49:53.982Z,3.75
2023-09-12T16:52:21.116Z,3.60
2023-09-12T16:54:49.672Z,4.13
2023-09-12T16:57:16.900Z,4.05
2023-09-12T16:59:44.976Z,3.30
2023-09-12T17:02:12.258Z,3.20
2023-09-12T17:04:39.774Z,3.80
2023-09-12T17:07:07.572Z,3.67
2023-09-12T17:09:34.968Z,3.28
2023-09-12T17:12:03.671Z,3.80
2023-09-12T17:14:31.759Z,4.07
2023-09-12T17:16:58.953Z,4.38
2023-09-12T17:19:26.125Z,3.65
2023-09-12T17:21:53.339Z,3.75
2023-09-12T17:24:20.609Z,3.45
2023-09-12T17:26:47.793Z,3.70
2023-09-12T17:29:16.416Z,4.13
2023-09-12T17:31:43.643Z,4.40
2023-09-12T17:34:10.902Z,4.10
2023-09-12T17:36:38.128Z,4.70
2023-09-12T17:39:05.479Z,4.57
2023-09-12T17:41:32.649Z,3.97
2023-09-12T17:43:59.772Z,4.32
2023-09-12T17:46:28.352Z,4.45
2023-09-12T17:48:55.672Z,4.10
2023-09-12T17:51:22.964Z,4.80
2023-09-12T17:53:50.263Z,4.35
2023-09-12T17:56:17.417Z,5.03
2023-09-12T17:58:44.563Z,4.53
2023-09-12T18:01:11.840Z,4.47
2023-09-12T18:03:40.568Z,5.13
2023-09-12T18:06:07.780Z,5.30
2023-09-12T18:08:34.938Z,5.25
2023-09-12T18:11:02.247Z,5.70
2023-09-12T18:13:29.517Z,5.25
2023-09-12T18:15:57.279Z,6.68
2023-09-12T18:18:24.458Z,6.82
2023-09-12T18:20:52.952Z,7.50
2023-09-12T18:23:20.128Z,6.70
2023-09-12T18:25:47.328Z,6.70
2023-09-12T18:28:14.471Z,6.63
2023-09-12T18:30:41.628Z,7.75
2023-09-12T18:33:08.848Z,6.75
2023-09-12T18:35:36.032Z,7.28
2023-09-12T18:38:04.995Z,6.93
2023-09-12T18:40:32.177Z,7.55
2023-09-12T18:42:59.383Z,8.18
2023-09-12T18:45:26.580Z,8.50
2023-09-12T18:47:54.387Z,8.00
2023-09-12T18:51:11.618Z,9.65
2023-09-12T18:54:49.261Z,9.95
2023-09-12T18:57:16.509Z,10.90
2023-09-12T18:59:43.690Z,11.73
2023-09-12T19:02:10.945Z,12.25
2023-09-12T19:04:38.330Z,11.50
2023-09-12T19:07:06.083Z,11.80
2023-09-12T19:09:33.453Z,12.70
2023-09-12T19:12:02.004Z,11.45
2023-09-12T19:14:29.157Z,11.93
2023-09-12T19:17:00.780Z,11.20
2023-09-12T19:19:27.980Z,13.63
2023-09-12T19:21:55.474Z,12.25
2023-09-12T19:24:22.858Z,11.65
2023-09-12T19:26:49.992Z,12.23
2023-09-12T19:29:18.602Z,12.15
2023-09-12T19:31:45.965Z,12.32
2023-09-12T19:34:13.284Z,11.18
2023-09-12T19:36:40.470Z,12.18
2023-09-12T19:39:07.729Z,12.73
2023-09-12T19:41:34.849Z,12.77
2023-09-12T19:44:01.986Z,12.70
2023-09-12T19:46:30.982Z,10.82
2023-09-12T19:48:58.437Z,12.52
2023-09-12T19:51:25.723Z,11.80
2023-09-12T19:53:52.883Z,11.77
2023-09-12T19:56:20.176Z,11.60
2023-09-12T19:58:47.333Z,12.93
2023-09-12T20:01:14.672Z,11.70
2023-09-12T20:03:43.737Z,10.88
2023-09-12T20:06:11.204Z,12.20
2023-09-12T20:08:38.326Z,12.68
2023-09-12T20:11:08.188Z,12.55
2023-09-12T20:13:35.327Z,11.52
2023-09-12T20:16:02.726Z,12.68
2023-09-12T20:18:29.936Z,13.05
2023-09-12T20:20:58.463Z,13.15
2023-09-12T20:23:25.618Z,15.27
2023-09-12T20:25:53.088Z,16.48
2023-09-12T20:28:20.606Z,18.88
2023-09-12T20:30:47.833Z,19.33
2023-09-12T20:33:15.091Z,19.67
2023-09-12T20:35:42.271Z,20.23
2023-09-12T20:38:10.783Z,20.55
2023-09-12T20:40:38.153Z,20.67
2023-09-12T20:43:05.373Z,19.90
2023-09-12T20:45:32.610Z,20.65
2023-09-12T20:47:59.837Z,21.98
2023-09-12T20:50:30.599Z,22.83
2023-09-12T20:52:58.543Z,24.35
2023-09-12T20:55:27.341Z,20.73
2023-09-12T20:57:54.873Z,20.50
2023-09-12T21:00:22.328Z,19.67
2023-09-12T21:02:49.752Z,22.63
2023-09-12T21:05:17.151Z,19.50
2023-09-12T21:07:44.837Z,14.00
2023-09-12T21:10:12.126Z,13.38
2023-09-12T21:12:40.675Z,13.00
2023-09-12T21:15:10.186Z,12.85
2023-09-12T21:17:38.209Z,10.90
2023-09-12T21:20:08.831Z,4.70
2023-09-12T21:22:36.382Z,3.92
2023-09-12T21:25:04.358Z,2.42
2023-09-12T21:27:31.663Z,2.30
2023-09-12T21:30:00.363Z,3.03
2023-09-12T21:32:27.558Z,2.70
2023-09-12T21:35:10.979Z,3.53
2023-09-12T21:37:38.205Z,4.95
2023-09-12T21:40:07.240Z,4.32
2023-09-12T21:42:34.399Z,4.80
2023-09-12T21:45:03.094Z,4.22
2023-09-12T21:47:30.376Z,3.75
2023-09-12T21:49:57.581Z,3.35
2023-09-12T21:52:24.727Z,3.50
2023-09-12T21:54:51.903Z,4.07
2023-09-12T21:57:19.084Z,4.10
2023-09-12T21:59:46.235Z,4.43
2023-09-12T22:02:14.975Z,4.57
2023-09-12T22:04:42.153Z,4.93
2023-09-12T22:07:09.330Z,4.28
2023-09-12T22:09:36.552Z,4.28
2023-09-12T22:12:04.239Z,3.60
2023-09-12T22:14:31.378Z,3.03
2023-09-12T22:16:58.570Z,3.00
2023-09-12T22:19:27.600Z,3.30
2023-09-12T22:21:54.799Z,3.47
2023-09-12T22:24:21.997Z,3.47
2023-09-12T22:26:49.126Z,2.60
2023-09-12T22:29:16.252Z,3.10
2023-09-12T22:31:43.504Z,3.00
2023-09-12T22:34:10.735Z,3.40
2023-09-12T22:36:39.338Z,4.55
2023-09-12T22:39:06.589Z,4.40
2023-09-12T22:41:33.778Z,4.40
2023-09-12T22:44:00.919Z,4.57
2023-09-12T22:46:28.130Z,4.65
2023-09-12T22:48:55.303Z,4.30
2023-09-12T22:51:22.557Z,3.42
2023-09-12T22:53:51.118Z,3.70
2023-09-12T22:56:18.245Z,3.33
2023-09-12T22:58:45.359Z,2.92
2023-09-12T23:01:12.535Z,2.75
2023-09-12T23:03:39.760Z,2.88
2023-09-12T23:06:07.129Z,2.85
2023-09-12T23:08:34.270Z,2.88
2023-09-12T23:11:02.826Z,2.67
2023-09-12T23:13:30.066Z,2.75
2023-09-12T23:15:57.248Z,2.50
2023-09-12T23:18:24.404Z,2.72
2023-09-12T23:20:51.574Z,2.17
2023-09-12T23:23:18.814Z,2.80
2023-09-12T23:25:45.944Z,3.95
2023-09-12T23:28:14.582Z,4.18
2023-09-12T23:30:42.182Z,5.53
2023-09-12T23:33:09.401Z,3.60
2023-09-12T23:35:36.574Z,2.67
2023-09-12T23:38:04.000Z,3.83
2023-09-12T23:40:31.146Z,4.20
2023-09-12T23:42:58.318Z,3.67
2023-09-12T23:45:26.954Z,3.55
2023-09-12T23:47:54.288Z,3.67
2023-09-12T23:50:21.764Z,4.20
2023-09-12T23:52:48.880Z,3.20
2023-09-12T23:55:16.244Z,3.28
2023-09-12T23:57:43.412Z,3.10
